sensor_id;sensor_type;location;lat;lon;timestamp;P1;durP1;ratioP1;P2;durP2;ratioP2
77332;SDS011;66408;51.326;12.070;2023-08-30T00:01:24;5.28;;;2.90;;
77332;SDS011;66408;51.326;12.070;2023-08-30T00:03:50;3.85;;;2.97;;
77332;SDS011;66408;51.326;12.070;2023-08-30T00:06:17;4.75;;;2.92;;
77332;SDS011;66408;51.326;12.070;2023-08-30T00:08:43;4.30;;;3.05;;
77332;SDS011;66408;51.326;12.070;2023-08-30T00:11:10;5.75;;;3.17;;
77332;SDS011;66408;51.326;12.070;2023-08-30T00:13:37;4.25;;;3.00;;
77332;SDS011;66408;51.326;12.070;2023-08-30T00:16:03;4.85;;;2.65;;
77332;SDS011;66408;51.326;12.070;2023-08-30T00:18:30;6.65;;;2.90;;
77332;SDS011;66408;51.326;12.070;2023-08-30T00:20:57;9.38;;;3.10;;
77332;SDS011;66408;51.326;12.070;2023-08-30T00:23:24;3.75;;;2.83;;
77332;SDS011;66408;51.326;12.070;2023-08-30T00:25:50;4.97;;;3.15;;
77332;SDS011;66408;51.326;12.070;2023-08-30T00:28:17;4.68;;;2.88;;
77332;SDS011;66408;51.326;12.070;2023-08-30T00:30:43;4.45;;;3.28;;
77332;SDS011;66408;51.326;12.070;2023-08-30T00:33:10;4.28;;;2.70;;
77332;SDS011;66408;51.326;12.070;2023-08-30T00:35:37;3.40;;;2.45;;
77332;SDS011;66408;51.326;12.070;2023-08-30T00:38:03;3.38;;;2.70;;
77332;SDS011;66408;51.326;12.070;2023-08-30T00:40:37;4.50;;;2.80;;
77332;SDS011;66408;51.326;12.070;2023-08-30T00:43:04;6.22;;;3.20;;
77332;SDS011;66408;51.326;12.070;2023-08-30T00:45:31;4.05;;;2.67;;
77332;SDS011;66408;51.326;12.070;2023-08-30T00:47:58;3.15;;;2.33;;
77332;SDS011;66408;51.326;12.070;2023-08-30T00:50:25;4.93;;;2.50;;
77332;SDS011;66408;51.326;12.070;2023-08-30T00:52:51;5.18;;;3.22;;
77332;SDS011;66408;51.326;12.070;2023-08-30T00:55:18;4.47;;;2.97;;
77332;SDS011;66408;51.326;12.070;2023-08-30T00:57:44;3.83;;;2.85;;
77332;SDS011;66408;51.326;12.070;2023-08-30T01:00:13;5.50;;;2.75;;
77332;SDS011;66408;51.326;12.070;2023-08-30T01:02:40;5.55;;;2.70;;
77332;SDS011;66408;51.326;12.070;2023-08-30T01:05:07;4.97;;;2.85;;
77332;SDS011;66408;51.326;12.070;2023-08-30T01:07:34;2.92;;;2.30;;
77332;SDS011;66408;51.326;12.070;2023-08-30T01:10:01;4.47;;;2.60;;
77332;SDS011;66408;51.326;12.070;2023-08-30T01:12:33;3.03;;;2.42;;
77332;SDS011;66408;51.326;12.070;2023-08-30T01:15:07;4.13;;;2.65;;
77332;SDS011;66408;51.326;12.070;2023-08-30T01:17:37;5.57;;;2.20;;
77332;SDS011;66408;51.326;12.070;2023-08-30T01:20:08;3.75;;;2.47;;
77332;SDS011;66408;51.326;12.070;2023-08-30T01:28:54;4.28;;;2.85;;
77332;SDS011;66408;51.326;12.070;2023-08-30T01:31:22;4.75;;;2.95;;
77332;SDS011;66408;51.326;12.070;2023-08-30T01:33:51;5.68;;;2.95;;
77332;SDS011;66408;51.326;12.070;2023-08-30T01:36:18;4.28;;;2.90;;
77332;SDS011;66408;51.326;12.070;2023-08-30T01:38:45;6.22;;;3.30;;
77332;SDS011;66408;51.326;12.070;2023-08-30T01:41:12;6.03;;;2.97;;
77332;SDS011;66408;51.326;12.070;2023-08-30T01:43:40;6.05;;;2.80;;
77332;SDS011;66408;51.326;12.070;2023-08-30T01:46:07;4.38;;;2.55;;
77332;SDS011;66408;51.326;12.070;2023-08-30T01:48:35;4.55;;;2.60;;
77332;SDS011;66408;51.326;12.070;2023-08-30T01:51:02;5.30;;;3.05;;
77332;SDS011;66408;51.326;12.070;2023-08-30T01:53:29;5.75;;;3.00;;
77332;SDS011;66408;51.326;12.070;2023-08-30T01:55:58;4.15;;;3.08;;
77332;SDS011;66408;51.326;12.070;2023-08-30T01:58:24;4.60;;;2.90;;
77332;SDS011;66408;51.326;12.070;2023-08-30T02:00:51;3.88;;;2.63;;
77332;SDS011;66408;51.326;12.070;2023-08-30T02:03:17;4.32;;;2.72;;
77332;SDS011;66408;51.326;12.070;2023-08-30T02:08:19;3.63;;;2.55;;
77332;SDS011;66408;51.326;12.070;2023-08-30T02:10:55;5.97;;;3.10;;
77332;SDS011;66408;51.326;12.070;2023-08-30T02:13:25;3.95;;;2.40;;
77332;SDS011;66408;51.326;12.070;2023-08-30T02:15:55;3.60;;;2.50;;
77332;SDS011;66408;51.326;12.070;2023-08-30T02:18:25;3.63;;;2.20;;
77332;SDS011;66408;51.326;12.070;2023-08-30T02:20:53;5.05;;;2.70;;
77332;SDS011;66408;51.326;12.070;2023-08-30T02:23:25;5.50;;;2.60;;
77332;SDS011;66408;51.326;12.070;2023-08-30T02:25:53;4.25;;;2.53;;
77332;SDS011;66408;51.326;12.070;2023-08-30T02:28:23;3.35;;;2.20;;
77332;SDS011;66408;51.326;12.070;2023-08-30T02:30:52;3.00;;;2.42;;
77332;SDS011;66408;51.326;12.070;2023-08-30T02:33:19;3.17;;;1.80;;
77332;SDS011;66408;51.326;12.070;2023-08-30T02:35:46;3.08;;;2.33;;
77332;SDS011;66408;51.326;12.070;2023-08-30T02:38:12;6.55;;;2.88;;
77332;SDS011;66408;51.326;12.070;2023-08-30T02:40:39;5.95;;;2.72;;
77332;SDS011;66408;51.326;12.070;2023-08-30T02:43:05;6.55;;;3.70;;
77332;SDS011;66408;51.326;12.070;2023-08-30T02:45:32;6.13;;;3.72;;
77332;SDS011;66408;51.326;12.070;2023-08-30T02:47:58;3.97;;;2.58;;
77332;SDS011;66408;51.326;12.070;2023-08-30T02:50:25;4.53;;;2.65;;
77332;SDS011;66408;51.326;12.070;2023-08-30T02:52:52;3.47;;;2.40;;
77332;SDS011;66408;51.326;12.070;2023-08-30T02:55:19;2.72;;;2.17;;
77332;SDS011;66408;51.326;12.070;2023-08-30T02:57:45;3.50;;;2.50;;
77332;SDS011;66408;51.326;12.070;2023-08-30T03:00:13;2.28;;;1.75;;
77332;SDS011;66408;51.326;12.070;2023-08-30T03:02:40;2.75;;;2.10;;
77332;SDS011;66408;51.326;12.070;2023-08-30T03:05:06;3.47;;;2.17;;
77332;SDS011;66408;51.326;12.070;2023-08-30T03:07:33;3.60;;;2.08;;
77332;SDS011;66408;51.326;12.070;2023-08-30T03:10:00;3.60;;;2.22;;
77332;SDS011;66408;51.326;12.070;2023-08-30T03:12:26;2.58;;;1.58;;
77332;SDS011;66408;51.326;12.070;2023-08-30T03:14:55;3.30;;;2.03;;
77332;SDS011;66408;51.326;12.070;2023-08-30T03:17:21;3.88;;;2.20;;
77332;SDS011;66408;51.326;12.070;2023-08-30T03:19:50;3.00;;;1.80;;
77332;SDS011;66408;51.326;12.070;2023-08-30T03:22:19;3.90;;;2.08;;
77332;SDS011;66408;51.326;12.070;2023-08-30T03:24:45;4.38;;;1.83;;
77332;SDS011;66408;51.326;12.070;2023-08-30T03:27:12;3.80;;;1.88;;
77332;SDS011;66408;51.326;12.070;2023-08-30T03:29:38;2.00;;;1.60;;
77332;SDS011;66408;51.326;12.070;2023-08-30T03:32:05;4.05;;;1.58;;
77332;SDS011;66408;51.326;12.070;2023-08-30T03:34:32;2.90;;;1.70;;
77332;SDS011;66408;51.326;12.070;2023-08-30T03:36:58;3.10;;;2.08;;
77332;SDS011;66408;51.326;12.070;2023-08-30T03:39:25;3.00;;;2.03;;
77332;SDS011;66408;51.326;12.070;2023-08-30T03:41:51;3.95;;;2.15;;
77332;SDS011;66408;51.326;12.070;2023-08-30T03:44:18;5.93;;;2.00;;
77332;SDS011;66408;51.326;12.070;2023-08-30T03:46:44;4.50;;;2.00;;
77332;SDS011;66408;51.326;12.070;2023-08-30T03:49:11;4.65;;;2.30;;
77332;SDS011;66408;51.326;12.070;2023-08-30T03:51:38;3.35;;;2.35;;
77332;SDS011;66408;51.326;12.070;2023-08-30T03:54:07;3.17;;;2.05;;
77332;SDS011;66408;51.326;12.070;2023-08-30T03:56:39;5.10;;;2.25;;
77332;SDS011;66408;51.326;12.070;2023-08-30T03:59:06;3.55;;;2.38;;
77332;SDS011;66408;51.326;12.070;2023-08-30T04:01:32;4.93;;;2.42;;
77332;SDS011;66408;51.326;12.070;2023-08-30T04:03:59;5.13;;;2.03;;
77332;SDS011;66408;51.326;12.070;2023-08-30T04:06:26;3.63;;;2.15;;
77332;SDS011;66408;51.326;12.070;2023-08-30T04:08:52;4.70;;;1.80;;
77332;SDS011;66408;51.326;12.070;2023-08-30T04:11:19;3.75;;;2.05;;
77332;SDS011;66408;51.326;12.070;2023-08-30T04:13:45;2.78;;;1.90;;
77332;SDS011;66408;51.326;12.070;2023-08-30T04:16:12;5.68;;;2.28;;
77332;SDS011;66408;51.326;12.070;2023-08-30T04:18:38;3.22;;;2.20;;
77332;SDS011;66408;51.326;12.070;2023-08-30T04:21:05;4.15;;;2.38;;
77332;SDS011;66408;51.326;12.070;2023-08-30T04:23:34;4.65;;;2.20;;
77332;SDS011;66408;51.326;12.070;2023-08-30T04:26:00;3.25;;;2.17;;
77332;SDS011;66408;51.326;12.070;2023-08-30T04:28:27;4.63;;;2.17;;
77332;SDS011;66408;51.326;12.070;2023-08-30T04:30:54;3.42;;;2.20;;
77332;SDS011;66408;51.326;12.070;2023-08-30T04:33:21;4.40;;;1.90;;
77332;SDS011;66408;51.326;12.070;2023-08-30T04:35:51;2.85;;;1.95;;
77332;SDS011;66408;51.326;12.070;2023-08-30T04:38:19;4.00;;;2.22;;
77332;SDS011;66408;51.326;12.070;2023-08-30T04:40:46;2.55;;;1.67;;
77332;SDS011;66408;51.326;12.070;2023-08-30T04:43:13;3.58;;;1.98;;
77332;SDS011;66408;51.326;12.070;2023-08-30T04:45:40;3.22;;;1.90;;
77332;SDS011;66408;51.326;12.070;2023-08-30T04:48:06;3.58;;;1.98;;
77332;SDS011;66408;51.326;12.070;2023-08-30T04:50:34;3.45;;;1.88;;
77332;SDS011;66408;51.326;12.070;2023-08-30T04:53:00;2.05;;;1.52;;
77332;SDS011;66408;51.326;12.070;2023-08-30T04:55:29;2.03;;;1.52;;
77332;SDS011;66408;51.326;12.070;2023-08-30T04:57:56;3.58;;;1.85;;
77332;SDS011;66408;51.326;12.070;2023-08-30T05:00:23;3.30;;;2.08;;
77332;SDS011;66408;51.326;12.070;2023-08-30T05:02:50;2.30;;;1.70;;
77332;SDS011;66408;51.326;12.070;2023-08-30T05:05:16;2.45;;;1.80;;
77332;SDS011;66408;51.326;12.070;2023-08-30T05:07:43;2.67;;;1.90;;
77332;SDS011;66408;51.326;12.070;2023-08-30T05:12:43;5.10;;;2.25;;
77332;SDS011;66408;51.326;12.070;2023-08-30T05:15:14;5.32;;;2.53;;
77332;SDS011;66408;51.326;12.070;2023-08-30T05:17:40;3.55;;;2.50;;
77332;SDS011;66408;51.326;12.070;2023-08-30T05:20:07;3.67;;;2.50;;
77332;SDS011;66408;51.326;12.070;2023-08-30T05:22:34;3.30;;;2.30;;
77332;SDS011;66408;51.326;12.070;2023-08-30T05:25:01;3.53;;;2.50;;
77332;SDS011;66408;51.326;12.070;2023-08-30T05:27:28;3.10;;;2.10;;
77332;SDS011;66408;51.326;12.070;2023-08-30T05:29:54;6.35;;;2.33;;
77332;SDS011;66408;51.326;12.070;2023-08-30T05:32:22;4.38;;;2.50;;
77332;SDS011;66408;51.326;12.070;2023-08-30T05:34:48;4.22;;;2.60;;
77332;SDS011;66408;51.326;12.070;2023-08-30T05:37:15;3.10;;;2.40;;
77332;SDS011;66408;51.326;12.070;2023-08-30T05:39:41;4.00;;;2.78;;
77332;SDS011;66408;51.326;12.070;2023-08-30T05:42:08;3.28;;;2.47;;
77332;SDS011;66408;51.326;12.070;2023-08-30T05:44:34;4.22;;;2.70;;
77332;SDS011;66408;51.326;12.070;2023-08-30T05:47:01;6.13;;;3.20;;
77332;SDS011;66408;51.326;12.070;2023-08-30T05:49:27;4.97;;;2.92;;
77332;SDS011;66408;51.326;12.070;2023-08-30T05:51:54;4.70;;;3.20;;
77332;SDS011;66408;51.326;12.070;2023-08-30T05:54:23;6.53;;;3.13;;
77332;SDS011;66408;51.326;12.070;2023-08-30T05:56:52;5.57;;;3.10;;
77332;SDS011;66408;51.326;12.070;2023-08-30T05:59:20;4.47;;;3.28;;
77332;SDS011;66408;51.326;12.070;2023-08-30T06:01:46;3.90;;;3.08;;
77332;SDS011;66408;51.326;12.070;2023-08-30T06:04:13;4.00;;;3.28;;
77332;SDS011;66408;51.326;12.070;2023-08-30T06:06:40;4.18;;;2.85;;
77332;SDS011;66408;51.326;12.070;2023-08-30T06:09:06;3.78;;;2.97;;
77332;SDS011;66408;51.326;12.070;2023-08-30T06:11:33;6.53;;;3.30;;
77332;SDS011;66408;51.326;12.070;2023-08-30T06:13:59;7.80;;;4.28;;
77332;SDS011;66408;51.326;12.070;2023-08-30T06:16:26;4.55;;;3.28;;
77332;SDS011;66408;51.326;12.070;2023-08-30T06:18:52;4.40;;;3.38;;
77332;SDS011;66408;51.326;12.070;2023-08-30T06:21:19;4.63;;;3.25;;
77332;SDS011;66408;51.326;12.070;2023-08-30T06:23:45;4.97;;;3.50;;
77332;SDS011;66408;51.326;12.070;2023-08-30T06:26:12;6.88;;;3.22;;
77332;SDS011;66408;51.326;12.070;2023-08-30T06:28:38;6.57;;;3.72;;
77332;SDS011;66408;51.326;12.070;2023-08-30T06:31:08;4.35;;;3.45;;
77332;SDS011;66408;51.326;12.070;2023-08-30T06:33:34;5.10;;;3.13;;
77332;SDS011;66408;51.326;12.070;2023-08-30T06:36:02;4.25;;;3.25;;
77332;SDS011;66408;51.326;12.070;2023-08-30T06:38:29;5.47;;;3.58;;
77332;SDS011;66408;51.326;12.070;2023-08-30T06:40:57;5.72;;;3.67;;
77332;SDS011;66408;51.326;12.070;2023-08-30T06:45:51;5.32;;;3.63;;
77332;SDS011;66408;51.326;12.070;2023-08-30T06:48:19;5.18;;;3.42;;
77332;SDS011;66408;51.326;12.070;2023-08-30T06:53:31;5.13;;;3.63;;
77332;SDS011;66408;51.326;12.070;2023-08-30T06:55:58;4.78;;;3.42;;
77332;SDS011;66408;51.326;12.070;2023-08-30T06:58:25;5.15;;;3.95;;
77332;SDS011;66408;51.326;12.070;2023-08-30T07:00:54;4.10;;;3.50;;
77332;SDS011;66408;51.326;12.070;2023-08-30T07:03:23;5.28;;;3.40;;
77332;SDS011;66408;51.326;12.070;2023-08-30T07:05:53;4.88;;;3.42;;
77332;SDS011;66408;51.326;12.070;2023-08-30T07:08:19;4.10;;;3.25;;
77332;SDS011;66408;51.326;12.070;2023-08-30T07:10:46;8.73;;;4.05;;
77332;SDS011;66408;51.326;12.070;2023-08-30T07:13:13;7.50;;;3.92;;
77332;SDS011;66408;51.326;12.070;2023-08-30T07:15:40;4.97;;;3.30;;
77332;SDS011;66408;51.326;12.070;2023-08-30T07:18:07;4.82;;;3.50;;
77332;SDS011;66408;51.326;12.070;2023-08-30T07:20:35;5.72;;;3.42;;
77332;SDS011;66408;51.326;12.070;2023-08-30T07:23:03;5.68;;;3.60;;
77332;SDS011;66408;51.326;12.070;2023-08-30T07:25:30;4.78;;;3.28;;
77332;SDS011;66408;51.326;12.070;2023-08-30T07:27:57;6.13;;;3.20;;
77332;SDS011;66408;51.326;12.070;2023-08-30T07:30:23;8.30;;;3.83;;
77332;SDS011;66408;51.326;12.070;2023-08-30T07:32:50;5.70;;;3.75;;
77332;SDS011;66408;51.326;12.070;2023-08-30T07:35:16;4.78;;;3.50;;
77332;SDS011;66408;51.326;12.070;2023-08-30T07:37:43;6.00;;;3.40;;
77332;SDS011;66408;51.326;12.070;2023-08-30T07:40:10;4.88;;;3.90;;
77332;SDS011;66408;51.326;12.070;2023-08-30T07:42:37;5.97;;;4.13;;
77332;SDS011;66408;51.326;12.070;2023-08-30T07:45:04;5.80;;;4.10;;
77332;SDS011;66408;51.326;12.070;2023-08-30T07:47:36;6.03;;;3.75;;
77332;SDS011;66408;51.326;12.070;2023-08-30T07:50:04;4.90;;;3.65;;
77332;SDS011;66408;51.326;12.070;2023-08-30T07:52:31;5.28;;;3.85;;
77332;SDS011;66408;51.326;12.070;2023-08-30T07:55:10;7.15;;;4.18;;
77332;SDS011;66408;51.326;12.070;2023-08-30T07:57:37;6.10;;;4.05;;
77332;SDS011;66408;51.326;12.070;2023-08-30T08:00:04;6.93;;;4.45;;
77332;SDS011;66408;51.326;12.070;2023-08-30T08:02:31;5.32;;;3.70;;
77332;SDS011;66408;51.326;12.070;2023-08-30T08:04:58;5.35;;;3.80;;
77332;SDS011;66408;51.326;12.070;2023-08-30T08:07:25;6.53;;;3.90;;
77332;SDS011;66408;51.326;12.070;2023-08-30T08:09:54;6.38;;;4.03;;
77332;SDS011;66408;51.326;12.070;2023-08-30T08:12:21;4.60;;;3.45;;
77332;SDS011;66408;51.326;12.070;2023-08-30T08:14:48;6.18;;;3.85;;
77332;SDS011;66408;51.326;12.070;2023-08-30T08:17:14;6.35;;;3.97;;
77332;SDS011;66408;51.326;12.070;2023-08-30T08:19:41;4.15;;;3.42;;
77332;SDS011;66408;51.326;12.070;2023-08-30T08:22:09;4.90;;;3.50;;
77332;SDS011;66408;51.326;12.070;2023-08-30T08:24:36;6.05;;;3.92;;
77332;SDS011;66408;51.326;12.070;2023-08-30T08:27:02;5.25;;;3.90;;
77332;SDS011;66408;51.326;12.070;2023-08-30T08:29:29;4.50;;;3.05;;
77332;SDS011;66408;51.326;12.070;2023-08-30T08:31:55;4.40;;;3.30;;
77332;SDS011;66408;51.326;12.070;2023-08-30T08:34:22;4.13;;;3.05;;
77332;SDS011;66408;51.326;12.070;2023-08-30T08:36:51;3.25;;;2.47;;
77332;SDS011;66408;51.326;12.070;2023-08-30T08:39:17;5.35;;;3.00;;
77332;SDS011;66408;51.326;12.070;2023-08-30T08:41:45;5.55;;;3.10;;
77332;SDS011;66408;51.326;12.070;2023-08-30T08:44:12;3.60;;;2.60;;
77332;SDS011;66408;51.326;12.070;2023-08-30T08:46:39;7.43;;;2.90;;
77332;SDS011;66408;51.326;12.070;2023-08-30T08:49:14;4.88;;;3.33;;
77332;SDS011;66408;51.326;12.070;2023-08-30T08:51:42;4.97;;;2.97;;
77332;SDS011;66408;51.326;12.070;2023-08-30T08:54:10;4.40;;;2.80;;
77332;SDS011;66408;51.326;12.070;2023-08-30T08:56:37;4.18;;;2.75;;
77332;SDS011;66408;51.326;12.070;2023-08-30T08:59:08;6.38;;;2.70;;
77332;SDS011;66408;51.326;12.070;2023-08-30T09:01:35;5.28;;;3.10;;
77332;SDS011;66408;51.326;12.070;2023-08-30T09:04:06;4.68;;;2.97;;
77332;SDS011;66408;51.326;12.070;2023-08-30T09:06:37;5.10;;;2.58;;
77332;SDS011;66408;51.326;12.070;2023-08-30T09:09:09;4.85;;;2.72;;
77332;SDS011;66408;51.326;12.070;2023-08-30T09:11:36;3.85;;;2.80;;
77332;SDS011;66408;51.326;12.070;2023-08-30T09:14:16;5.65;;;3.28;;
77332;SDS011;66408;51.326;12.070;2023-08-30T09:16:53;6.13;;;3.10;;
77332;SDS011;66408;51.326;12.070;2023-08-30T09:19:29;5.15;;;3.08;;
77332;SDS011;66408;51.326;12.070;2023-08-30T09:21:57;5.55;;;3.00;;
77332;SDS011;66408;51.326;12.070;2023-08-30T09:24:25;3.50;;;2.88;;
77332;SDS011;66408;51.326;12.070;2023-08-30T09:26:54;3.42;;;2.40;;
77332;SDS011;66408;51.326;12.070;2023-08-30T09:29:22;4.13;;;2.10;;
77332;SDS011;66408;51.326;12.070;2023-08-30T09:31:52;4.10;;;2.40;;
77332;SDS011;66408;51.326;12.070;2023-08-30T09:34:23;4.18;;;2.40;;
77332;SDS011;66408;51.326;12.070;2023-08-30T09:36:53;4.22;;;2.00;;
77332;SDS011;66408;51.326;12.070;2023-08-30T09:39:21;2.75;;;1.90;;
77332;SDS011;66408;51.326;12.070;2023-08-30T09:41:48;5.18;;;2.30;;
77332;SDS011;66408;51.326;12.070;2023-08-30T09:46:45;3.03;;;2.00;;
77332;SDS011;66408;51.326;12.070;2023-08-30T09:49:22;3.03;;;1.75;;
77332;SDS011;66408;51.326;12.070;2023-08-30T09:51:50;2.40;;;1.77;;
77332;SDS011;66408;51.326;12.070;2023-08-30T09:54:22;2.88;;;2.00;;
77332;SDS011;66408;51.326;12.070;2023-08-30T09:56:53;2.53;;;1.77;;
77332;SDS011;66408;51.326;12.070;2023-08-30T10:01:49;2.22;;;1.50;;
77332;SDS011;66408;51.326;12.070;2023-08-30T10:04:17;2.92;;;1.80;;
77332;SDS011;66408;51.326;12.070;2023-08-30T10:06:45;2.60;;;1.75;;
77332;SDS011;66408;51.326;12.070;2023-08-30T10:09:13;2.28;;;1.55;;
77332;SDS011;66408;51.326;12.070;2023-08-30T10:11:45;2.28;;;1.58;;
77332;SDS011;66408;51.326;12.070;2023-08-30T10:14:12;2.70;;;1.45;;
77332;SDS011;66408;51.326;12.070;2023-08-30T10:19:23;1.77;;;1.15;;
77332;SDS011;66408;51.326;12.070;2023-08-30T10:22:04;1.38;;;1.00;;
77332;SDS011;66408;51.326;12.070;2023-08-30T10:24:39;1.80;;;1.30;;
77332;SDS011;66408;51.326;12.070;2023-08-30T10:27:56;1.58;;;1.30;;
77332;SDS011;66408;51.326;12.070;2023-08-30T10:30:23;2.17;;;1.17;;
77332;SDS011;66408;51.326;12.070;2023-08-30T10:32:51;1.52;;;1.15;;
77332;SDS011;66408;51.326;12.070;2023-08-30T10:35:18;1.98;;;1.20;;
77332;SDS011;66408;51.326;12.070;2023-08-30T10:37:55;3.08;;;1.10;;
77332;SDS011;66408;51.326;12.070;2023-08-30T10:40:22;1.77;;;1.40;;
77332;SDS011;66408;51.326;12.070;2023-08-30T10:43:02;1.27;;;0.90;;
77332;SDS011;66408;51.326;12.070;2023-08-30T10:45:30;1.52;;;1.08;;
77332;SDS011;66408;51.326;12.070;2023-08-30T10:47:57;3.17;;;1.50;;
77332;SDS011;66408;51.326;12.070;2023-08-30T10:50:32;4.18;;;1.40;;
77332;SDS011;66408;51.326;12.070;2023-08-30T10:53:00;2.13;;;1.30;;
77332;SDS011;66408;51.326;12.070;2023-08-30T10:55:27;1.92;;;1.23;;
77332;SDS011;66408;51.326;12.070;2023-08-30T10:58:00;2.00;;;1.27;;
77332;SDS011;66408;51.326;12.070;2023-08-30T11:00:29;2.20;;;1.13;;
77332;SDS011;66408;51.326;12.070;2023-08-30T11:02:56;2.05;;;1.20;;
77332;SDS011;66408;51.326;12.070;2023-08-30T11:05:24;1.75;;;0.93;;
77332;SDS011;66408;51.326;12.070;2023-08-30T11:12:46;1.77;;;1.05;;
77332;SDS011;66408;51.326;12.070;2023-08-30T11:15:15;2.22;;;1.45;;
77332;SDS011;66408;51.326;12.070;2023-08-30T11:17:43;3.63;;;1.70;;
77332;SDS011;66408;51.326;12.070;2023-08-30T11:20:11;2.05;;;1.30;;
77332;SDS011;66408;51.326;12.070;2023-08-30T11:22:43;2.38;;;1.30;;
77332;SDS011;66408;51.326;12.070;2023-08-30T11:25:12;2.88;;;1.48;;
77332;SDS011;66408;51.326;12.070;2023-08-30T11:27:39;3.10;;;1.30;;
77332;SDS011;66408;51.326;12.070;2023-08-30T11:30:06;2.92;;;1.23;;
77332;SDS011;66408;51.326;12.070;2023-08-30T11:35:01;2.53;;;1.15;;
77332;SDS011;66408;51.326;12.070;2023-08-30T11:37:28;2.67;;;1.33;;
77332;SDS011;66408;51.326;12.070;2023-08-30T11:39:55;3.17;;;1.60;;
77332;SDS011;66408;51.326;12.070;2023-08-30T11:42:22;1.77;;;1.38;;
77332;SDS011;66408;51.326;12.070;2023-08-30T11:44:49;1.42;;;0.95;;
77332;SDS011;66408;51.326;12.070;2023-08-30T11:47:24;1.35;;;1.02;;
77332;SDS011;66408;51.326;12.070;2023-08-30T11:49:55;2.35;;;1.10;;
77332;SDS011;66408;51.326;12.070;2023-08-30T11:52:23;1.58;;;0.80;;
77332;SDS011;66408;51.326;12.070;2023-08-30T11:54:51;2.08;;;0.82;;
77332;SDS011;66408;51.326;12.070;2023-08-30T11:57:19;1.02;;;0.68;;
77332;SDS011;66408;51.326;12.070;2023-08-30T12:02:15;1.67;;;0.90;;
77332;SDS011;66408;51.326;12.070;2023-08-30T12:07:24;1.52;;;0.82;;
77332;SDS011;66408;51.326;12.070;2023-08-30T12:10:03;2.03;;;0.70;;
77332;SDS011;66408;51.326;12.070;2023-08-30T12:12:30;1.05;;;0.60;;
77332;SDS011;66408;51.326;12.070;2023-08-30T12:14:57;1.10;;;0.50;;
77332;SDS011;66408;51.326;12.070;2023-08-30T12:17:24;1.17;;;0.70;;
77332;SDS011;66408;51.326;12.070;2023-08-30T12:19:57;2.15;;;0.80;;
77332;SDS011;66408;51.326;12.070;2023-08-30T12:22:40;1.30;;;0.80;;
77332;SDS011;66408;51.326;12.070;2023-08-30T12:25:20;1.73;;;0.88;;
77332;SDS011;66408;51.326;12.070;2023-08-30T12:27:49;1.20;;;0.90;;
77332;SDS011;66408;51.326;12.070;2023-08-30T12:30:16;2.50;;;1.10;;
77332;SDS011;66408;51.326;12.070;2023-08-30T12:32:44;1.30;;;0.90;;
77332;SDS011;66408;51.326;12.070;2023-08-30T12:35:12;1.40;;;0.73;;
77332;SDS011;66408;51.326;12.070;2023-08-30T12:37:38;1.80;;;0.90;;
77332;SDS011;66408;51.326;12.070;2023-08-30T12:40:05;1.38;;;0.82;;
77332;SDS011;66408;51.326;12.070;2023-08-30T12:42:32;1.92;;;0.88;;
77332;SDS011;66408;51.326;12.070;2023-08-30T12:44:59;1.90;;;1.00;;
77332;SDS011;66408;51.326;12.070;2023-08-30T12:47:27;2.30;;;1.10;;
77332;SDS011;66408;51.326;12.070;2023-08-30T12:49:54;2.03;;;0.80;;
77332;SDS011;66408;51.326;12.070;2023-08-30T12:52:21;1.90;;;1.05;;
77332;SDS011;66408;51.326;12.070;2023-08-30T12:54:47;1.63;;;0.90;;
77332;SDS011;66408;51.326;12.070;2023-08-30T12:57:14;1.13;;;0.90;;
77332;SDS011;66408;51.326;12.070;2023-08-30T12:59:40;1.42;;;0.90;;
77332;SDS011;66408;51.326;12.070;2023-08-30T13:02:07;1.77;;;0.90;;
77332;SDS011;66408;51.326;12.070;2023-08-30T13:04:34;1.38;;;1.00;;
77332;SDS011;66408;51.326;12.070;2023-08-30T13:07:04;1.98;;;0.90;;
77332;SDS011;66408;51.326;12.070;2023-08-30T13:09:31;1.60;;;1.10;;
77332;SDS011;66408;51.326;12.070;2023-08-30T13:11:57;2.05;;;1.05;;
77332;SDS011;66408;51.326;12.070;2023-08-30T13:14:24;1.60;;;1.10;;
77332;SDS011;66408;51.326;12.070;2023-08-30T13:16:50;2.03;;;0.93;;
77332;SDS011;66408;51.326;12.070;2023-08-30T13:19:17;1.20;;;0.90;;
77332;SDS011;66408;51.326;12.070;2023-08-30T13:21:43;2.85;;;1.00;;
77332;SDS011;66408;51.326;12.070;2023-08-30T13:24:10;1.52;;;1.10;;
77332;SDS011;66408;51.326;12.070;2023-08-30T13:26:36;3.20;;;1.20;;
77332;SDS011;66408;51.326;12.070;2023-08-30T13:29:03;1.67;;;1.17;;
77332;SDS011;66408;51.326;12.070;2023-08-30T13:31:30;2.20;;;1.23;;
77332;SDS011;66408;51.326;12.070;2023-08-30T13:33:56;2.20;;;1.20;;
77332;SDS011;66408;51.326;12.070;2023-08-30T13:36:24;1.40;;;1.05;;
77332;SDS011;66408;51.326;12.070;2023-08-30T13:38:50;1.40;;;1.05;;
77332;SDS011;66408;51.326;12.070;2023-08-30T13:41:17;2.33;;;1.42;;
77332;SDS011;66408;51.326;12.070;2023-08-30T13:43:43;4.00;;;1.38;;
77332;SDS011;66408;51.326;12.070;2023-08-30T13:46:10;1.95;;;1.33;;
77332;SDS011;66408;51.326;12.070;2023-08-30T13:48:37;1.80;;;1.40;;
77332;SDS011;66408;51.326;12.070;2023-08-30T13:51:03;2.13;;;1.30;;
77332;SDS011;66408;51.326;12.070;2023-08-30T13:53:30;1.50;;;0.93;;
77332;SDS011;66408;51.326;12.070;2023-08-30T13:55:56;1.90;;;1.40;;
77332;SDS011;66408;51.326;12.070;2023-08-30T13:58:23;2.22;;;1.40;;
77332;SDS011;66408;51.326;12.070;2023-08-30T14:00:49;2.15;;;1.10;;
77332;SDS011;66408;51.326;12.070;2023-08-30T14:03:16;1.92;;;1.20;;
77332;SDS011;66408;51.326;12.070;2023-08-30T14:05:43;1.75;;;1.05;;
77332;SDS011;66408;51.326;12.070;2023-08-30T14:08:09;1.80;;;0.98;;
77332;SDS011;66408;51.326;12.070;2023-08-30T14:10:36;1.70;;;1.08;;
77332;SDS011;66408;51.326;12.070;2023-08-30T14:13:03;3.08;;;1.13;;
77332;SDS011;66408;51.326;12.070;2023-08-30T14:15:31;2.17;;;1.15;;
77332;SDS011;66408;51.326;12.070;2023-08-30T14:17:58;3.13;;;1.00;;
77332;SDS011;66408;51.326;12.070;2023-08-30T14:20:25;1.92;;;1.10;;
77332;SDS011;66408;51.326;12.070;2023-08-30T14:22:52;2.00;;;1.30;;
77332;SDS011;66408;51.326;12.070;2023-08-30T14:25:18;1.80;;;1.23;;
77332;SDS011;66408;51.326;12.070;2023-08-30T14:27:44;2.22;;;1.30;;
77332;SDS011;66408;51.326;12.070;2023-08-30T14:30:11;2.65;;;1.55;;
77332;SDS011;66408;51.326;12.070;2023-08-30T14:32:38;2.10;;;1.40;;
77332;SDS011;66408;51.326;12.070;2023-08-30T14:35:05;2.35;;;1.27;;
77332;SDS011;66408;51.326;12.070;2023-08-30T14:37:32;2.60;;;1.40;;
77332;SDS011;66408;51.326;12.070;2023-08-30T14:40:01;1.80;;;1.50;;
77332;SDS011;66408;51.326;12.070;2023-08-30T14:42:31;2.17;;;1.40;;
77332;SDS011;66408;51.326;12.070;2023-08-30T14:44:58;3.28;;;1.48;;
77332;SDS011;66408;51.326;12.070;2023-08-30T14:47:25;3.58;;;1.58;;
77332;SDS011;66408;51.326;12.070;2023-08-30T14:49:52;2.17;;;1.33;;
77332;SDS011;66408;51.326;12.070;2023-08-30T14:52:18;2.08;;;1.33;;
77332;SDS011;66408;51.326;12.070;2023-08-30T14:54:44;2.95;;;1.55;;
77332;SDS011;66408;51.326;12.070;2023-08-30T14:57:11;2.53;;;1.50;;
77332;SDS011;66408;51.326;12.070;2023-08-30T14:59:38;3.42;;;1.60;;
77332;SDS011;66408;51.326;12.070;2023-08-30T15:02:04;2.97;;;1.65;;
77332;SDS011;66408;51.326;12.070;2023-08-30T15:04:31;4.07;;;1.70;;
77332;SDS011;66408;51.326;12.070;2023-08-30T15:06:59;1.95;;;1.58;;
77332;SDS011;66408;51.326;12.070;2023-08-30T15:09:26;2.50;;;1.40;;
77332;SDS011;66408;51.326;12.070;2023-08-30T15:11:53;2.30;;;1.45;;
77332;SDS011;66408;51.326;12.070;2023-08-30T15:14:20;2.33;;;1.58;;